sensor_id;sensor_type;location;lat;lon;timestamp;pressure;altitude;pressure_sealevel;temperature
15079;BMP180;6932;51.438;5.470;2022-12-18T00:01:26;102369.00;;;3.70
15079;BMP180;6932;51.438;5.470;2022-12-18T00:03:54;102367.00;;;3.60
15079;BMP180;6932;51.438;5.470;2022-12-18T00:06:22;102358.00;;;3.60
15079;BMP180;6932;51.438;5.470;2022-12-18T00:08:49;102356.00;;;3.60
15079;BMP180;6932;51.438;5.470;2022-12-18T00:11:18;102358.00;;;3.60
15079;BMP180;6932;51.438;5.470;2022-12-18T00:13:44;102362.00;;;3.60
15079;BMP180;6932;51.438;5.470;2022-12-18T00:16:14;102371.00;;;3.60
15079;BMP180;6932;51.438;5.470;2022-12-18T00:18:42;102369.00;;;3.60
15079;BMP180;6932;51.438;5.470;2022-12-18T00:21:11;102361.00;;;3.60
15079;BMP180;6932;51.438;5.470;2022-12-18T00:23:38;102354.00;;;3.60
15079;BMP180;6932;51.438;5.470;2022-12-18T00:26:09;102342.00;;;3.60
15079;BMP180;6932;51.438;5.470;2022-12-18T00:28:35;102344.00;;;3.70
15079;BMP180;6932;51.438;5.470;2022-12-18T00:31:10;102328.00;;;3.60
15079;BMP180;6932;51.438;5.470;2022-12-18T00:33:36;102325.00;;;3.70
15079;BMP180;6932;51.438;5.470;2022-12-18T00:36:10;102320.00;;;3.70
15079;BMP180;6932;51.438;5.470;2022-12-18T00:38:36;102319.00;;;3.60
15079;BMP180;6932;51.438;5.470;2022-12-18T00:41:03;102328.00;;;3.70
15079;BMP180;6932;51.438;5.470;2022-12-18T00:43:29;102314.00;;;3.60
15079;BMP180;6932;51.438;5.470;2022-12-18T00:45:55;102329.00;;;3.60
15079;BMP180;6932;51.438;5.470;2022-12-18T00:48:21;102332.00;;;3.60
15079;BMP180;6932;51.438;5.470;2022-12-18T00:50:49;102326.00;;;3.60
15079;BMP180;6932;51.438;5.470;2022-12-18T00:53:15;102318.00;;;3.60
15079;BMP180;6932;51.438;5.470;2022-12-18T00:55:41;102331.00;;;3.60
15079;BMP180;6932;51.438;5.470;2022-12-18T00:58:09;102320.00;;;3.60
15079;BMP180;6932;51.438;5.470;2022-12-18T01:00:35;102320.00;;;3.60
15079;BMP180;6932;51.438;5.470;2022-12-18T01:03:01;102325.00;;;3.60
15079;BMP180;6932;51.438;5.470;2022-12-18T01:05:27;102338.00;;;3.60
15079;BMP180;6932;51.438;5.470;2022-12-18T01:07:53;102334.00;;;3.60
15079;BMP180;6932;51.438;5.470;2022-12-18T01:10:19;102336.00;;;3.60
15079;BMP180;6932;51.438;5.470;2022-12-18T01:12:45;102336.00;;;3.60
15079;BMP180;6932;51.438;5.470;2022-12-18T01:15:14;102344.00;;;3.50
15079;BMP180;6932;51.438;5.470;2022-12-18T01:17:40;102352.00;;;3.50
15079;BMP180;6932;51.438;5.470;2022-12-18T01:20:07;102343.00;;;3.50
15079;BMP180;6932;51.438;5.470;2022-12-18T01:22:34;102347.00;;;3.50
15079;BMP180;6932;51.438;5.470;2022-12-18T01:25:01;102339.00;;;3.50
15079;BMP180;6932;51.438;5.470;2022-12-18T01:27:27;102347.00;;;3.50
15079;BMP180;6932;51.438;5.470;2022-12-18T01:29:52;102339.00;;;3.50
15079;BMP180;6932;51.438;5.470;2022-12-18T01:32:19;102339.00;;;3.40
15079;BMP180;6932;51.438;5.470;2022-12-18T01:34:45;102338.00;;;3.40
15079;BMP180;6932;51.438;5.470;2022-12-18T01:37:10;102335.00;;;3.40
15079;BMP180;6932;51.438;5.470;2022-12-18T01:39:36;102336.00;;;3.40
15079;BMP180;6932;51.438;5.470;2022-12-18T01:42:11;102335.00;;;3.40
15079;BMP180;6932;51.438;5.470;2022-12-18T01:53:16;102328.00;;;3.30
15079;BMP180;6932;51.438;5.470;2022-12-18T01:55:52;102329.00;;;3.30
15079;BMP180;6932;51.438;5.470;2022-12-18T01:58:21;102327.00;;;3.30
15079;BMP180;6932;51.438;5.470;2022-12-18T02:00:48;102332.00;;;3.30
15079;BMP180;6932;51.438;5.470;2022-12-18T02:03:14;102324.00;;;3.20
15079;BMP180;6932;51.438;5.470;2022-12-18T02:06:04;102328.00;;;3.30
15079;BMP180;6932;51.438;5.470;2022-12-18T02:14:39;102308.00;;;3.20
15079;BMP180;6932;51.438;5.470;2022-12-18T02:17:11;102309.00;;;3.20
15079;BMP180;6932;51.438;5.470;2022-12-18T02:30:04;102319.00;;;3.10
15079;BMP180;6932;51.438;5.470;2022-12-18T02:32:22;102320.00;;;3.00
15079;BMP180;6932;51.438;5.470;2022-12-18T02:34:52;102320.00;;;3.00
15079;BMP180;6932;51.438;5.470;2022-12-18T02:37:22;102312.00;;;3.00
15079;BMP180;6932;51.438;5.470;2022-12-18T02:39:51;102314.00;;;3.00
15079;BMP180;6932;51.438;5.470;2022-12-18T02:42:19;102315.00;;;3.00
15079;BMP180;6932;51.438;5.470;2022-12-18T02:44:48;102309.00;;;3.00
15079;BMP180;6932;51.438;5.470;2022-12-18T02:47:19;102302.00;;;3.00
15079;BMP180;6932;51.438;5.470;2022-12-18T02:50:30;102288.00;;;3.00
15079;BMP180;6932;51.438;5.470;2022-12-18T02:53:27;102291.00;;;3.00
15079;BMP180;6932;51.438;5.470;2022-12-18T02:56:16;102281.00;;;3.00
15079;BMP180;6932;51.438;5.470;2022-12-18T02:58:58;102272.00;;;3.00
15079;BMP180;6932;51.438;5.470;2022-12-18T03:01:57;102277.00;;;2.90
15079;BMP180;6932;51.438;5.470;2022-12-18T03:04:30;102293.00;;;2.90
15079;BMP180;6932;51.438;5.470;2022-12-18T03:07:07;102294.00;;;2.90
15079;BMP180;6932;51.438;5.470;2022-12-18T03:09:46;102278.00;;;2.90
15079;BMP180;6932;51.438;5.470;2022-12-18T03:12:23;102277.00;;;2.90
15079;BMP180;6932;51.438;5.470;2022-12-18T03:15:01;102264.00;;;2.90
15079;BMP180;6932;51.438;5.470;2022-12-18T03:17:32;102268.00;;;2.90
15079;BMP180;6932;51.438;5.470;2022-12-18T03:20:09;102267.00;;;2.90
15079;BMP180;6932;51.438;5.470;2022-12-18T03:22:38;102270.00;;;2.90
15079;BMP180;6932;51.438;5.470;2022-12-18T03:25:08;102262.00;;;2.90
15079;BMP180;6932;51.438;5.470;2022-12-18T03:27:38;102268.00;;;2.90
15079;BMP180;6932;51.438;5.470;2022-12-18T03:30:10;102277.00;;;2.90
15079;BMP180;6932;51.438;5.470;2022-12-18T03:33:12;102265.00;;;2.90
15079;BMP180;6932;51.438;5.470;2022-12-18T03:35:42;102280.00;;;2.90
15079;BMP180;6932;51.438;5.470;2022-12-18T03:38:09;102271.00;;;2.90
15079;BMP180;6932;51.438;5.470;2022-12-18T03:47:31;102277.00;;;2.80
15079;BMP180;6932;51.438;5.470;2022-12-18T03:49:57;102265.00;;;2.80
15079;BMP180;6932;51.438;5.470;2022-12-18T03:52:42;102266.00;;;2.80
15079;BMP180;6932;51.438;5.470;2022-12-18T03:55:12;102260.00;;;2.80
15079;BMP180;6932;51.438;5.470;2022-12-18T03:57:39;102256.00;;;2.80
15079;BMP180;6932;51.438;5.470;2022-12-18T04:00:11;102248.00;;;2.80
15079;BMP180;6932;51.438;5.470;2022-12-18T04:02:43;102249.00;;;2.80
15079;BMP180;6932;51.438;5.470;2022-12-18T04:05:11;102231.00;;;2.80
15079;BMP180;6932;51.438;5.470;2022-12-18T04:07:39;102239.00;;;2.80
15079;BMP180;6932;51.438;5.470;2022-12-18T04:10:07;102240.00;;;2.80
15079;BMP180;6932;51.438;5.470;2022-12-18T04:12:42;102233.00;;;2.80
15079;BMP180;6932;51.438;5.470;2022-12-18T04:15:11;102226.00;;;2.80
15079;BMP180;6932;51.438;5.470;2022-12-18T04:17:38;102234.00;;;2.70
15079;BMP180;6932;51.438;5.470;2022-12-18T04:20:05;102218.00;;;2.70
15079;BMP180;6932;51.438;5.470;2022-12-18T04:22:30;102224.00;;;2.70
15079;BMP180;6932;51.438;5.470;2022-12-18T04:24:56;102217.00;;;2.70
15079;BMP180;6932;51.438;5.470;2022-12-18T04:27:22;102212.00;;;2.70
15079;BMP180;6932;51.438;5.470;2022-12-18T04:29:48;102224.00;;;2.70
15079;BMP180;6932;51.438;5.470;2022-12-18T04:32:13;102219.00;;;2.70
15079;BMP180;6932;51.438;5.470;2022-12-18T04:34:39;102226.00;;;2.70
15079;BMP180;6932;51.438;5.470;2022-12-18T04:37:05;102236.00;;;2.70
15079;BMP180;6932;51.438;5.470;2022-12-18T04:39:30;102239.00;;;2.70
15079;BMP180;6932;51.438;5.470;2022-12-18T04:41:59;102235.00;;;2.70
15079;BMP180;6932;51.438;5.470;2022-12-18T04:44:25;102238.00;;;2.60
15079;BMP180;6932;51.438;5.470;2022-12-18T04:46:51;102238.00;;;2.70
15079;BMP180;6932;51.438;5.470;2022-12-18T04:49:16;102240.00;;;2.70
15079;BMP180;6932;51.438;5.470;2022-12-18T04:51:42;102242.00;;;2.70
15079;BMP180;6932;51.438;5.470;2022-12-18T04:54:08;102254.00;;;2.70
15079;BMP180;6932;51.438;5.470;2022-12-18T04:56:33;102255.00;;;2.70
15079;BMP180;6932;51.438;5.470;2022-12-18T04:58:59;102262.00;;;2.70
15079;BMP180;6932;51.438;5.470;2022-12-18T05:01:25;102260.00;;;2.70
15079;BMP180;6932;51.438;5.470;2022-12-18T05:03:51;102266.00;;;2.70
15079;BMP180;6932;51.438;5.470;2022-12-18T05:06:17;102254.00;;;2.70
15079;BMP180;6932;51.438;5.470;2022-12-18T05:08:43;102256.00;;;2.70
15079;BMP180;6932;51.438;5.470;2022-12-18T05:11:12;102260.00;;;2.70
15079;BMP180;6932;51.438;5.470;2022-12-18T05:13:42;102265.00;;;2.60
15079;BMP180;6932;51.438;5.470;2022-12-18T05:16:09;102270.00;;;2.70
15079;BMP180;6932;51.438;5.470;2022-12-18T05:18:35;102265.00;;;2.70
15079;BMP180;6932;51.438;5.470;2022-12-18T05:21:02;102258.00;;;2.70
15079;BMP180;6932;51.438;5.470;2022-12-18T05:23:28;102263.00;;;2.70
15079;BMP180;6932;51.438;5.470;2022-12-18T05:26:01;102263.00;;;2.80
15079;BMP180;6932;51.438;5.470;2022-12-18T05:28:30;102251.00;;;2.90
15079;BMP180;6932;51.438;5.470;2022-12-18T05:30:59;102246.00;;;2.90
15079;BMP180;6932;51.438;5.470;2022-12-18T05:33:29;102241.00;;;2.90
15079;BMP180;6932;51.438;5.470;2022-12-18T05:35:58;102240.00;;;2.90
15079;BMP180;6932;51.438;5.470;2022-12-18T05:38:28;102244.00;;;2.90
15079;BMP180;6932;51.438;5.470;2022-12-18T05:40:55;102247.00;;;2.80
15079;BMP180;6932;51.438;5.470;2022-12-18T05:43:24;102237.00;;;2.80
15079;BMP180;6932;51.438;5.470;2022-12-18T05:45:50;102235.00;;;2.80
15079;BMP180;6932;51.438;5.470;2022-12-18T05:48:17;102235.00;;;2.80
15079;BMP180;6932;51.438;5.470;2022-12-18T05:50:46;102232.00;;;2.80
15079;BMP180;6932;51.438;5.470;2022-12-18T05:53:15;102235.00;;;2.80
15079;BMP180;6932;51.438;5.470;2022-12-18T05:55:43;102242.00;;;2.70
15079;BMP180;6932;51.438;5.470;2022-12-18T05:58:11;102226.00;;;2.70
15079;BMP180;6932;51.438;5.470;2022-12-18T06:00:43;102218.00;;;2.70
15079;BMP180;6932;51.438;5.470;2022-12-18T06:03:11;102218.00;;;2.70
15079;BMP180;6932;51.438;5.470;2022-12-18T06:05:41;102225.00;;;2.70
15079;BMP180;6932;51.438;5.470;2022-12-18T06:08:08;102228.00;;;2.70
15079;BMP180;6932;51.438;5.470;2022-12-18T06:10:34;102220.00;;;2.70
15079;BMP180;6932;51.438;5.470;2022-12-18T06:13:01;102205.00;;;2.70
15079;BMP180;6932;51.438;5.470;2022-12-18T06:15:27;102223.00;;;2.70
15079;BMP180;6932;51.438;5.470;2022-12-18T06:17:52;102235.00;;;2.70
15079;BMP180;6932;51.438;5.470;2022-12-18T06:20:18;102242.00;;;2.70
15079;BMP180;6932;51.438;5.470;2022-12-18T06:22:44;102238.00;;;2.80
15079;BMP180;6932;51.438;5.470;2022-12-18T06:25:10;102228.00;;;2.80
15079;BMP180;6932;51.438;5.470;2022-12-18T06:27:36;102243.00;;;2.80
15079;BMP180;6932;51.438;5.470;2022-12-18T06:30:03;102244.00;;;2.80
15079;BMP180;6932;51.438;5.470;2022-12-18T06:32:29;102230.00;;;2.80
15079;BMP180;6932;51.438;5.470;2022-12-18T06:34:54;102234.00;;;2.80
15079;BMP180;6932;51.438;5.470;2022-12-18T06:37:21;102227.00;;;2.80
15079;BMP180;6932;51.438;5.470;2022-12-18T06:39:52;102238.00;;;2.80
15079;BMP180;6932;51.438;5.470;2022-12-18T06:42:18;102231.00;;;2.80
15079;BMP180;6932;51.438;5.470;2022-12-18T06:44:47;102230.00;;;2.80
15079;BMP180;6932;51.438;5.470;2022-12-18T06:47:12;102224.00;;;2.80
15079;BMP180;6932;51.438;5.470;2022-12-18T06:49:38;102220.00;;;2.80
15079;BMP180;6932;51.438;5.470;2022-12-18T06:52:04;102227.00;;;2.80
15079;BMP180;6932;51.438;5.470;2022-12-18T06:54:29;102222.00;;;2.80
15079;BMP180;6932;51.438;5.470;2022-12-18T06:56:55;102230.00;;;2.80
15079;BMP180;6932;51.438;5.470;2022-12-18T06:59:21;102229.00;;;2.80
15079;BMP180;6932;51.438;5.470;2022-12-18T07:01:46;102218.00;;;2.90
15079;BMP180;6932;51.438;5.470;2022-12-18T07:04:12;102221.00;;;2.90
15079;BMP180;6932;51.438;5.470;2022-12-18T07:06:38;102225.00;;;2.80
15079;BMP180;6932;51.438;5.470;2022-12-18T07:09:03;102228.00;;;2.80
15079;BMP180;6932;51.438;5.470;2022-12-18T07:11:32;102212.00;;;2.90
15079;BMP180;6932;51.438;5.470;2022-12-18T07:13:58;102200.00;;;2.90
15079;BMP180;6932;51.438;5.470;2022-12-18T07:16:24;102207.00;;;2.90
15079;BMP180;6932;51.438;5.470;2022-12-18T07:18:49;102205.00;;;2.90
15079;BMP180;6932;51.438;5.470;2022-12-18T07:21:19;102194.00;;;2.90
15079;BMP180;6932;51.438;5.470;2022-12-18T07:23:45;102198.00;;;2.90
15079;BMP180;6932;51.438;5.470;2022-12-18T07:26:14;102165.00;;;2.90
15079;BMP180;6932;51.438;5.470;2022-12-18T07:28:41;102155.00;;;2.90
15079;BMP180;6932;51.438;5.470;2022-12-18T07:31:13;102156.00;;;2.90
15079;BMP180;6932;51.438;5.470;2022-12-18T07:33:40;102160.00;;;2.90
15079;BMP180;6932;51.438;5.470;2022-12-18T07:36:07;102152.00;;;2.90
15079;BMP180;6932;51.438;5.470;2022-12-18T07:38:35;102160.00;;;2.90
15079;BMP180;6932;51.438;5.470;2022-12-18T07:41:07;102163.00;;;2.90
15079;BMP180;6932;51.438;5.470;2022-12-18T07:43:34;102150.00;;;2.90
15079;BMP180;6932;51.438;5.470;2022-12-18T07:46:00;102152.00;;;2.90
15079;BMP180;6932;51.438;5.470;2022-12-18T07:48:27;102144.00;;;2.90
15079;BMP180;6932;51.438;5.470;2022-12-18T07:50:53;102133.00;;;2.90
15079;BMP180;6932;51.438;5.470;2022-12-18T07:53:19;102119.00;;;2.90
15079;BMP180;6932;51.438;5.470;2022-12-18T07:55:44;102127.00;;;2.90
15079;BMP180;6932;51.438;5.470;2022-12-18T07:58:10;102120.00;;;2.90
15079;BMP180;6932;51.438;5.470;2022-12-18T08:00:36;102117.00;;;2.90
15079;BMP180;6932;51.438;5.470;2022-12-18T08:03:02;102098.00;;;2.90
15079;BMP180;6932;51.438;5.470;2022-12-18T08:05:28;102111.00;;;2.90
15079;BMP180;6932;51.438;5.470;2022-12-18T08:07:54;102121.00;;;3.00
15079;BMP180;6932;51.438;5.470;2022-12-18T08:10:21;102120.00;;;3.00
15079;BMP180;6932;51.438;5.470;2022-12-18T08:12:50;102125.00;;;3.00
15079;BMP180;6932;51.438;5.470;2022-12-18T08:15:17;102133.00;;;3.00
15079;BMP180;6932;51.438;5.470;2022-12-18T08:17:43;102130.00;;;3.10
15079;BMP180;6932;51.438;5.470;2022-12-18T08:20:09;102115.00;;;3.10
15079;BMP180;6932;51.438;5.470;2022-12-18T08:22:35;102119.00;;;3.10
15079;BMP180;6932;51.438;5.470;2022-12-18T08:25:05;102134.00;;;3.10
15079;BMP180;6932;51.438;5.470;2022-12-18T08:27:31;102138.00;;;3.10
15079;BMP180;6932;51.438;5.470;2022-12-18T08:29:57;102140.00;;;3.20
15079;BMP180;6932;51.438;5.470;2022-12-18T08:32:26;102133.00;;;3.20
15079;BMP180;6932;51.438;5.470;2022-12-18T08:34:52;102127.00;;;3.30
15079;BMP180;6932;51.438;5.470;2022-12-18T08:37:18;102139.00;;;3.30
15079;BMP180;6932;51.438;5.470;2022-12-18T08:39:43;102142.00;;;3.40
15079;BMP180;6932;51.438;5.470;2022-12-18T08:42:10;102133.00;;;3.40
15079;BMP180;6932;51.438;5.470;2022-12-18T08:44:54;102118.00;;;3.50
15079;BMP180;6932;51.438;5.470;2022-12-18T08:47:20;102111.00;;;3.50
15079;BMP180;6932;51.438;5.470;2022-12-18T08:49:45;102115.00;;;3.50
15079;BMP180;6932;51.438;5.470;2022-12-18T08:52:11;102106.00;;;3.50
15079;BMP180;6932;51.438;5.470;2022-12-18T08:54:40;102109.00;;;3.60
15079;BMP180;6932;51.438;5.470;2022-12-18T08:57:05;102115.00;;;3.60
15079;BMP180;6932;51.438;5.470;2022-12-18T08:59:32;102110.00;;;3.60
15079;BMP180;6932;51.438;5.470;2022-12-18T09:01:57;102105.00;;;3.70
15079;BMP180;6932;51.438;5.470;2022-12-18T09:04:23;102097.00;;;3.70
15079;BMP180;6932;51.438;5.470;2022-12-18T09:06:49;102093.00;;;3.70
15079;BMP180;6932;51.438;5.470;2022-12-18T09:09:15;102099.00;;;3.70
15079;BMP180;6932;51.438;5.470;2022-12-18T09:11:41;102111.00;;;3.80
15079;BMP180;6932;51.438;5.470;2022-12-18T09:14:07;102112.00;;;3.80
15079;BMP180;6932;51.438;5.470;2022-12-18T09:16:33;102120.00;;;3.80
15079;BMP180;6932;51.438;5.470;2022-12-18T09:19:03;102126.00;;;3.80
15079;BMP180;6932;51.438;5.470;2022-12-18T09:21:32;102127.00;;;3.80
15079;BMP180;6932;51.438;5.470;2022-12-18T09:23:59;102134.00;;;3.90
15079;BMP180;6932;51.438;5.470;2022-12-18T09:26:26;102136.00;;;3.90
15079;BMP180;6932;51.438;5.470;2022-12-18T09:28:53;102122.00;;;3.90
15079;BMP180;6932;51.438;5.470;2022-12-18T09:31:22;102112.00;;;4.00
15079;BMP180;6932;51.438;5.470;2022-12-18T09:33:48;102105.00;;;4.00
15079;BMP180;6932;51.438;5.470;2022-12-18T09:36:17;102102.00;;;4.00
15079;BMP180;6932;51.438;5.470;2022-12-18T09:38:44;102095.00;;;4.00
15079;BMP180;6932;51.438;5.470;2022-12-18T09:44:27;102106.00;;;4.00
15079;BMP180;6932;51.438;5.470;2022-12-18T09:47:22;102104.00;;;4.00
15079;BMP180;6932;51.438;5.470;2022-12-18T09:49:56;102098.00;;;4.00
15079;BMP180;6932;51.438;5.470;2022-12-18T09:52:45;102090.00;;;4.10
15079;BMP180;6932;51.438;5.470;2022-12-18T09:55:34;102083.00;;;4.10
15079;BMP180;6932;51.438;5.470;2022-12-18T09:58:55;102075.00;;;4.10
15079;BMP180;6932;51.438;5.470;2022-12-18T10:01:24;102071.00;;;4.10
15079;BMP180;6932;51.438;5.470;2022-12-18T10:03:51;102079.00;;;4.20
15079;BMP180;6932;51.438;5.470;2022-12-18T10:06:32;102082.00;;;4.30
15079;BMP180;6932;51.438;5.470;2022-12-18T10:12:08;102072.00;;;4.30
15079;BMP180;6932;51.438;5.470;2022-12-18T10:14:43;102086.00;;;4.30
15079;BMP180;6932;51.438;5.470;2022-12-18T10:18:12;102100.00;;;4.40
15079;BMP180;6932;51.438;5.470;2022-12-18T10:25:53;102084.00;;;4.50
15079;BMP180;6932;51.438;5.470;2022-12-18T10:28:21;102076.00;;;4.50
15079;BMP180;6932;51.438;5.470;2022-12-18T10:30:47;102071.00;;;4.60
15079;BMP180;6932;51.438;5.470;2022-12-18T10:33:21;102069.00;;;4.60
15079;BMP180;6932;51.438;5.470;2022-12-18T10:35:50;102066.00;;;4.60
15079;BMP180;6932;51.438;5.470;2022-12-18T10:43:35;102035.00;;;4.70
15079;BMP180;6932;51.438;5.470;2022-12-18T10:51:06;102031.00;;;4.70
15079;BMP180;6932;51.438;5.470;2022-12-18T10:53:36;102042.00;;;4.80
15079;BMP180;6932;51.438;5.470;2022-12-18T10:56:05;102029.00;;;4.80
15079;BMP180;6932;51.438;5.470;2022-12-18T10:58:38;102016.00;;;4.90
15079;BMP180;6932;51.438;5.470;2022-12-18T11:01:14;102019.00;;;4.90
15079;BMP180;6932;51.438;5.470;2022-12-18T11:06:15;102009.00;;;5.00
15079;BMP180;6932;51.438;5.470;2022-12-18T11:08:46;101997.00;;;5.00
15079;BMP180;6932;51.438;5.470;2022-12-18T11:11:24;102000.00;;;5.00
15079;BMP180;6932;51.438;5.470;2022-12-18T11:14:12;102011.00;;;5.00
15079;BMP180;6932;51.438;5.470;2022-12-18T11:16:46;102012.00;;;5.00
15079;BMP180;6932;51.438;5.470;2022-12-18T11:21:58;102010.00;;;5.10
15079;BMP180;6932;51.438;5.470;2022-12-18T11:24:35;102007.00;;;5.10
15079;BMP180;6932;51.438;5.470;2022-12-18T11:27:05;101991.00;;;5.10
15079;BMP180;6932;51.438;5.470;2022-12-18T11:29:39;101987.00;;;5.20
15079;BMP180;6932;51.438;5.470;2022-12-18T11:32:37;101977.00;;;5.20
15079;BMP180;6932;51.438;5.470;2022-12-18T11:35:13;101984.00;;;5.20
15079;BMP180;6932;51.438;5.470;2022-12-18T11:37:49;101992.00;;;5.30
15079;BMP180;6932;51.438;5.470;2022-12-18T11:40:33;101983.00;;;5.30
15079;BMP180;6932;51.438;5.470;2022-12-18T11:43:14;101983.00;;;5.30
15079;BMP180;6932;51.438;5.470;2022-12-18T11:45:59;101980.00;;;5.40
15079;BMP180;6932;51.438;5.470;2022-12-18T11:48:36;101982.00;;;5.40
15079;BMP180;6932;51.438;5.470;2022-12-18T11:51:11;101972.00;;;5.40
15079;BMP180;6932;51.438;5.470;2022-12-18T11:53:39;101978.00;;;5.40
15079;BMP180;6932;51.438;5.470;2022-12-18T11:56:35;101974.00;;;5.50
15079;BMP180;6932;51.438;5.470;2022-12-18T12:08:44;101954.00;;;5.50
15079;BMP180;6932;51.438;5.470;2022-12-18T12:15:03;101938.00;;;5.60
15079;BMP180;6932;51.438;5.470;2022-12-18T12:17:59;101930.00;;;5.60
15079;BMP180;6932;51.438;5.470;2022-12-18T12:23:51;101935.00;;;5.70
15079;BMP180;6932;51.438;5.470;2022-12-18T12:26:41;101931.00;;;5.70
15079;BMP180;6932;51.438;5.470;2022-12-18T12:30:00;101934.00;;;5.70
15079;BMP180;6932;51.438;5.470;2022-12-18T12:32:49;101925.00;;;5.70
15079;BMP180;6932;51.438;5.470;2022-12-18T12:40:33;101913.00;;;5.80
15079;BMP180;6932;51.438;5.470;2022-12-18T12:46:16;101901.00;;;5.90
15079;BMP180;6932;51.438;5.470;2022-12-18T12:48:55;101896.00;;;5.90
15079;BMP180;6932;51.438;5.470;2022-12-18T12:51:34;101884.00;;;5.90
15079;BMP180;6932;51.438;5.470;2022-12-18T12:54:05;101897.00;;;5.90
15079;BMP180;6932;51.438;5.470;2022-12-18T12:57:00;101886.00;;;6.00
15079;BMP180;6932;51.438;5.470;2022-12-18T13:03:04;101879.00;;;6.00
15079;BMP180;6932;51.438;5.470;2022-12-18T13:05:46;101885.00;;;6.00
15079;BMP180;6932;51.438;5.470;2022-12-18T13:08:31;101881.00;;;6.10
15079;BMP180;6932;51.438;5.470;2022-12-18T13:10:59;101870.00;;;6.10
15079;BMP180;6932;51.438;5.470;2022-12-18T13:13:55;101873.00;;;6.10
15079;BMP180;6932;51.438;5.470;2022-12-18T13:16:26;101870.00;;;6.10
15079;BMP180;6932;51.438;5.470;2022-12-18T13:18:57;101857.00;;;6.10
15079;BMP180;6932;51.438;5.470;2022-12-18T13:21:33;101857.00;;;6.20
15079;BMP180;6932;51.438;5.470;2022-12-18T13:24:34;101851.00;;;6.20
15079;BMP180;6932;51.438;5.470;2022-12-18T13:43:51;101860.00;;;6.30
15079;BMP180;6932;51.438;5.470;2022-12-18T13:46:27;101863.00;;;6.30
15079;BMP180;6932;51.438;5.470;2022-12-18T13:51:53;101835.00;;;6.30
15079;BMP180;6932;51.438;5.470;2022-12-18T13:54:37;101844.00;;;6.40
15079;BMP180;6932;51.438;5.470;2022-12-18T13:57:33;101840.00;;;6.40
15079;BMP180;6932;51.438;5.470;2022-12-18T14:00:26;101839.00;;;6.40
15079;BMP180;6932;51.438;5.470;2022-12-18T14:02:55;101835.00;;;6.40
15079;BMP180;6932;51.438;5.470;2022-12-18T14:05:24;101831.00;;;6.40
15079;BMP180;6932;51.438;5.470;2022-12-18T14:07:52;101835.00;;;6.50
15079;BMP180;6932;51.438;5.470;2022-12-18T14:10:19;101836.00;;;6.50
15079;BMP180;6932;51.438;5.470;2022-12-18T14:12:50;101826.00;;;6.50
15079;BMP180;6932;51.438;5.470;2022-12-18T14:15:35;101827.00;;;6.50
15079;BMP180;6932;51.438;5.470;2022-12-18T14:18:32;101833.00;;;6.50
15079;BMP180;6932;51.438;5.470;2022-12-18T14:21:02;101833.00;;;6.50
15079;BMP180;6932;51.438;5.470;2022-12-18T14:23:42;101839.00;;;6.50
15079;BMP180;6932;51.438;5.470;2022-12-18T14:28:48;101822.00;;;6.50
15079;BMP180;6932;51.438;5.470;2022-12-18T14:31:19;101823.00;;;6.60
15079;BMP180;6932;51.438;5.470;2022-12-18T14:33:45;101818.00;;;6.60
15079;BMP180;6932;51.438;5.470;2022-12-18T14:36:29;101823.00;;;6.60
15079;BMP180;6932;51.438;5.470;2022-12-18T14:38:57;101827.00;;;6.60
15079;BMP180;6932;51.438;5.470;2022-12-18T14:41:25;101822.00;;;6.60
15079;BMP180;6932;51.438;5.470;2022-12-18T14:43:53;101824.00;;;6.60
15079;BMP180;6932;51.438;5.470;2022-12-18T14:46:45;101825.00;;;6.70
15079;BMP180;6932;51.438;5.470;2022-12-18T14:49:30;101828.00;;;6.60
15079;BMP180;6932;51.438;5.470;2022-12-18T14:52:23;101814.00;;;6.70
15079;BMP180;6932;51.438;5.470;2022-12-18T14:54:52;101821.00;;;6.70
15079;BMP180;6932;51.438;5.470;2022-12-18T14:57:30;101813.00;;;6.70
15079;BMP180;6932;51.438;5.470;2022-12-18T15:00:19;101811.00;;;6.70
15079;BMP180;6932;51.438;5.470;2022-12-18T15:02:52;101832.00;;;6.70
15079;BMP180;6932;51.438;5.470;2022-12-18T15:05:31;101826.00;;;6.70
15079;BMP180;6932;51.438;5.470;2022-12-18T15:08:00;101818.00;;;6.70
15079;BMP180;6932;51.438;5.470;2022-12-18T15:10:32;101816.00;;;6.80
15079;BMP180;6932;51.438;5.470;2022-12-18T15:15:47;101813.00;;;6.80
15079;BMP180;6932;51.438;5.470;2022-12-18T15:18:18;101817.00;;;6.80
15079;BMP180;6932;51.438;5.470;2022-12-18T15:20:49;101806.00;;;6.80
15079;BMP180;6932;51.438;5.470;2022-12-18T15:23:47;101805.00;;;6.80
15079;BMP180;6932;51.438;5.470;2022-12-18T15:26:16;101802.00;;;6.80
15079;BMP180;6932;51.438;5.470;2022-12-18T15:28:54;101805.00;;;6.90
15079;BMP180;6932;51.438;5.470;2022-12-18T15:31:35;101702.00;;;6.90
15079;BMP180;6932;51.438;5.470;2022-12-18T15:34:22;101709.00;;;6.80
15079;BMP180;6932;51.438;5.470;2022-12-18T15:36:50;101704.00;;;6.50
15079;BMP180;6932;51.438;5.470;2022-12-18T15:39:15;101703.00;;;6.20
15079;BMP180;6932;51.438;5.470;2022-12-18T15:41:41;101715.00;;;6.00
15079;BMP180;6932;51.438;5.470;2022-12-18T15:44:27;101708.00;;;5.80
15079;BMP180;6932;51.438;5.470;2022-12-18T15:46:57;101701.00;;;5.70
15079;BMP180;6932;51.438;5.470;2022-12-18T15:49:23;101692.00;;;5.50
15079;BMP180;6932;51.438;5.470;2022-12-18T15:51:56;101686.00;;;5.50
15079;BMP180;6932;51.438;5.470;2022-12-18T15:54:22;101692.00;;;5.40
15079;BMP180;6932;51.438;5.470;2022-12-18T15:57:10;101680.00;;;5.30
15079;BMP180;6932;51.438;5.470;2022-12-18T15:59:52;101696.00;;;5.30
15079;BMP180;6932;51.438;5.470;2022-12-18T16:02:19;101688.00;;;5.20
15079;BMP180;6932;51.438;5.470;2022-12-18T16:04:46;101682.00;;;5.20
15079;BMP180;6932;51.438;5.470;2022-12-18T16:07:12;101698.00;;;5.20
15079;BMP180;6932;51.438;5.470;2022-12-18T16:09:38;101698.00;;;5.10
15079;BMP180;6932;51.438;5.470;2022-12-18T16:12:06;101682.00;;;5.10
15079;BMP180;6932;51.438;5.470;2022-12-18T16:14:32;101680.00;;;5.10
15079;BMP180;6932;51.438;5.470;2022-12-18T16:17:05;101688.00;;;5.10
15079;BMP180;6932;51.438;5.470;2022-12-18T16:19:34;101685.00;;;5.10
15079;BMP180;6932;51.438;5.470;2022-12-18T16:22:02;101672.00;;;5.10
15079;BMP180;6932;51.438;5.470;2022-12-18T16:24:32;101666.00;;;5.10
15079;BMP180;6932;51.438;5.470;2022-12-18T16:27:00;101656.00;;;5.10
15079;BMP180;6932;51.438;5.470;2022-12-18T16:29:28;101649.00;;;5.10
15079;BMP180;6932;51.438;5.470;2022-12-18T16:31:59;101740.00;;;5.00
15079;BMP180;6932;51.438;5.470;2022-12-18T16:36:57;101753.00;;;5.30
15079;BMP180;6932;51.438;5.470;2022-12-18T16:39:23;101738.00;;;5.50
15079;BMP180;6932;51.438;5.470;2022-12-18T16:41:49;101743.00;;;5.70